sensor_id;sensor_type;location;lat;lon;timestamp;pressure;altitude;pressure_sealevel;temperature;humidity
13478;BME280;12598;62.382;17.344;2023-06-26T00:00:31;101681.53;;;25.93;32.03
13478;BME280;12598;62.382;17.344;2023-06-26T00:01:34;101674.44;;;25.92;31.61
13478;BME280;12598;62.382;17.344;2023-06-26T00:02:37;101669.88;;;25.93;32.06
13478;BME280;12598;62.382;17.344;2023-06-26T00:03:38;101677.50;;;25.89;32.02
13478;BME280;12598;62.382;17.344;2023-06-26T00:04:42;101681.88;;;25.90;32.20
13478;BME280;12598;62.382;17.344;2023-06-26T00:05:44;101679.03;;;25.92;32.07
13478;BME280;12598;62.382;17.344;2023-06-26T00:06:46;101676.47;;;25.90;32.06
13478;BME280;12598;62.382;17.344;2023-06-26T00:07:48;101674.78;;;25.89;31.62
13478;BME280;12598;62.382;17.344;2023-06-26T00:08:50;101676.47;;;25.90;31.69
13478;BME280;12598;62.382;17.344;2023-06-26T00:09:52;101680.19;;;25.89;32.02
13478;BME280;12598;62.382;17.344;2023-06-26T00:10:54;101679.38;;;25.89;32.11
13478;BME280;12598;62.382;17.344;2023-06-26T00:11:56;101668.88;;;25.86;31.82
13478;BME280;12598;62.382;17.344;2023-06-26T00:12:58;101673.09;;;25.88;31.68
13478;BME280;12598;62.382;17.344;2023-06-26T00:14:00;101673.28;;;25.87;32.10
13478;BME280;12598;62.382;17.344;2023-06-26T00:15:03;101669.72;;;25.86;32.26
13478;BME280;12598;62.382;17.344;2023-06-26T00:16:04;101674.31;;;25.86;31.90
13478;BME280;12598;62.382;17.344;2023-06-26T00:17:06;101668.03;;;25.85;32.05
13478;BME280;12598;62.382;17.344;2023-06-26T00:18:08;101668.03;;;25.85;31.76
13478;BME280;12598;62.382;17.344;2023-06-26T00:19:10;101669.06;;;25.84;31.83
13478;BME280;12598;62.382;17.344;2023-06-26T00:20:12;101668.38;;;25.82;31.98
13478;BME280;12598;62.382;17.344;2023-06-26T00:21:16;101664.66;;;25.83;31.84
13478;BME280;12598;62.382;17.344;2023-06-26T00:22:18;101664.81;;;25.82;31.87
13478;BME280;12598;62.382;17.344;2023-06-26T00:23:20;101670.06;;;25.83;31.93
13478;BME280;12598;62.382;17.344;2023-06-26T00:24:22;101661.94;;;25.83;31.79
13478;BME280;12598;62.382;17.344;2023-06-26T00:25:24;101665.69;;;25.82;31.81
13478;BME280;12598;62.382;17.344;2023-06-26T00:26:26;101662.09;;;25.82;31.87
13478;BME280;12598;62.382;17.344;2023-06-26T00:27:28;101652.31;;;25.73;32.27
13478;BME280;12598;62.382;17.344;2023-06-26T00:28:30;101669.38;;;25.81;32.03
13478;BME280;12598;62.382;17.344;2023-06-26T00:29:32;101669.38;;;25.81;32.19
13478;BME280;12598;62.382;17.344;2023-06-26T00:30:33;101668.53;;;25.81;32.01
13478;BME280;12598;62.382;17.344;2023-06-26T00:31:35;101669.56;;;25.80;31.97
13478;BME280;12598;62.382;17.344;2023-06-26T00:32:37;101661.13;;;25.75;32.23
13478;BME280;12598;62.382;17.344;2023-06-26T00:33:40;101671.41;;;25.79;32.14
13478;BME280;12598;62.382;17.344;2023-06-26T00:34:42;101665.31;;;25.77;31.73
13478;BME280;12598;62.382;17.344;2023-06-26T00:35:43;101665.31;;;25.77;32.26
13478;BME280;12598;62.382;17.344;2023-06-26T00:36:45;101659.09;;;25.77;31.63
13478;BME280;12598;62.382;17.344;2023-06-26T00:37:47;101659.09;;;25.77;32.03
13478;BME280;12598;62.382;17.344;2023-06-26T00:38:50;101667.22;;;25.77;32.05
13478;BME280;12598;62.382;17.344;2023-06-26T00:39:52;101655.88;;;25.73;32.07
13478;BME280;12598;62.382;17.344;2023-06-26T00:40:53;101658.22;;;25.76;31.86
13478;BME280;12598;62.382;17.344;2023-06-26T00:41:57;101639.28;;;25.68;32.23
13478;BME280;12598;62.382;17.344;2023-06-26T00:42:59;101653.16;;;25.73;32.26
13478;BME280;12598;62.382;17.344;2023-06-26T00:44:01;101657.56;;;25.74;32.33
13478;BME280;12598;62.382;17.344;2023-06-26T00:45:03;101660.25;;;25.74;31.99
13478;BME280;12598;62.382;17.344;2023-06-26T00:46:09;101656.88;;;25.72;31.88
13478;BME280;12598;62.382;17.344;2023-06-26T00:47:14;101658.56;;;25.73;31.77
13478;BME280;12598;62.382;17.344;2023-06-26T00:48:17;101649.44;;;25.74;32.18
13478;BME280;12598;62.382;17.344;2023-06-26T00:49:20;101642.47;;;25.72;32.41
13478;BME280;12598;62.382;17.344;2023-06-26T00:50:22;101642.47;;;25.72;31.82
13478;BME280;12598;62.382;17.344;2023-06-26T00:51:25;101642.16;;;25.67;32.17
13478;BME280;12598;62.382;17.344;2023-06-26T00:52:27;101644.72;;;25.68;31.84
13478;BME280;12598;62.382;17.344;2023-06-26T00:53:30;101647.06;;;25.71;32.15
13478;BME280;12598;62.382;17.344;2023-06-26T00:54:32;101643.03;;;25.67;31.77
13478;BME280;12598;62.382;17.344;2023-06-26T00:55:34;101638.78;;;25.65;32.31
13478;BME280;12598;62.382;17.344;2023-06-26T00:56:36;101646.22;;;25.71;32.21
13478;BME280;12598;62.382;17.344;2023-06-26T00:57:39;101656.22;;;25.70;32.15
13478;BME280;12598;62.382;17.344;2023-06-26T00:58:41;101656.22;;;25.70;31.99
13478;BME280;12598;62.382;17.344;2023-06-26T00:59:43;101651.81;;;25.69;31.74
13478;BME280;12598;62.382;17.344;2023-06-26T01:00:45;101657.25;;;25.69;32.02
13478;BME280;12598;62.382;17.344;2023-06-26T01:01:47;101655.56;;;25.68;32.33
13478;BME280;12598;62.382;17.344;2023-06-26T01:02:50;101658.25;;;25.68;31.96
13478;BME280;12598;62.382;17.344;2023-06-26T01:03:53;101652.19;;;25.66;31.96
13478;BME280;12598;62.382;17.344;2023-06-26T01:04:55;101654.69;;;25.68;32.11
13478;BME280;12598;62.382;17.344;2023-06-26T01:05:58;101647.59;;;25.67;31.95
13478;BME280;12598;62.382;17.344;2023-06-26T01:07:02;101645.06;;;25.65;32.19
13478;BME280;12598;62.382;17.344;2023-06-26T01:08:07;101642.53;;;25.64;32.12
13478;BME280;12598;62.382;17.344;2023-06-26T01:09:10;101653.00;;;25.67;32.19
13478;BME280;12598;62.382;17.344;2023-06-26T01:10:12;101651.16;;;25.67;32.35
13478;BME280;12598;62.382;17.344;2023-06-26T01:11:14;101655.91;;;25.65;32.03
13478;BME280;12598;62.382;17.344;2023-06-26T01:12:17;101637.47;;;25.61;32.16
13478;BME280;12598;62.382;17.344;2023-06-26T01:13:19;101657.75;;;25.65;32.46
13478;BME280;12598;62.382;17.344;2023-06-26T01:14:21;101658.78;;;25.64;32.05
13478;BME280;12598;62.382;17.344;2023-06-26T01:15:23;101653.34;;;25.64;32.22
13478;BME280;12598;62.382;17.344;2023-06-26T01:16:26;101644.75;;;25.61;32.07
13478;BME280;12598;62.382;17.344;2023-06-26T01:17:29;101650.66;;;25.64;32.23
13478;BME280;12598;62.382;17.344;2023-06-26T01:18:35;101644.41;;;25.63;32.07
13478;BME280;12598;62.382;17.344;2023-06-26T01:19:39;101654.22;;;25.64;32.18
13478;BME280;12598;62.382;17.344;2023-06-26T01:20:42;101650.66;;;25.64;32.33
13478;BME280;12598;62.382;17.344;2023-06-26T01:21:46;101652.69;;;25.62;32.12
13478;BME280;12598;62.382;17.344;2023-06-26T01:23:30;101655.19;;;25.71;31.85
13478;BME280;12598;62.382;17.344;2023-06-26T01:24:35;101650.59;;;25.72;31.87
13478;BME280;12598;62.382;17.344;2023-06-26T01:26:12;101655.50;;;25.76;31.57
13478;BME280;12598;62.382;17.344;2023-06-26T01:27:17;101658.22;;;25.76;31.69
13478;BME280;12598;62.382;17.344;2023-06-26T01:28:22;101649.78;;;25.71;32.30
13478;BME280;12598;62.382;17.344;2023-06-26T01:29:28;101649.47;;;25.66;32.33
13478;BME280;12598;62.382;17.344;2023-06-26T01:30:35;101653.34;;;25.64;32.13
13478;BME280;12598;62.382;17.344;2023-06-26T01:31:39;101648.81;;;25.64;32.37
13478;BME280;12598;62.382;17.344;2023-06-26T01:32:41;101645.59;;;25.61;31.94
13478;BME280;12598;62.382;17.344;2023-06-26T01:33:44;101645.41;;;25.63;31.98
13478;BME280;12598;62.382;17.344;2023-06-26T01:34:47;101642.03;;;25.61;32.17
13478;BME280;12598;62.382;17.344;2023-06-26T01:35:49;101627.31;;;25.55;31.98
13478;BME280;12598;62.382;17.344;2023-06-26T01:36:52;101642.22;;;25.59;31.97
13478;BME280;12598;62.382;17.344;2023-06-26T01:37:54;101641.38;;;25.59;32.11
13478;BME280;12598;62.382;17.344;2023-06-26T01:39:17;101626.50;;;25.55;32.02
13478;BME280;12598;62.382;17.344;2023-06-26T01:40:19;101642.88;;;25.61;32.14
13478;BME280;12598;62.382;17.344;2023-06-26T01:41:21;101645.78;;;25.60;31.75
13478;BME280;12598;62.382;17.344;2023-06-26T01:42:23;101649.50;;;25.59;32.23
13478;BME280;12598;62.382;17.344;2023-06-26T01:43:49;101647.81;;;25.58;32.00
13478;BME280;12598;62.382;17.344;2023-06-26T01:45:00;101642.53;;;25.64;31.99
13478;BME280;12598;62.382;17.344;2023-06-26T01:46:23;101649.97;;;25.62;31.84
13478;BME280;12598;62.382;17.344;2023-06-26T01:47:29;101638.31;;;25.62;31.87
13478;BME280;12598;62.382;17.344;2023-06-26T01:48:44;101646.25;;;25.63;32.23
13478;BME280;12598;62.382;17.344;2023-06-26T01:50:17;101656.22;;;25.70;31.97
13478;BME280;12598;62.382;17.344;2023-06-26T01:51:25;101650.47;;;25.65;32.07
13478;BME280;12598;62.382;17.344;2023-06-26T01:53:42;101653.91;;;25.60;31.95
13478;BME280;12598;62.382;17.344;2023-06-26T01:55:02;101660.00;;;25.62;31.82
13478;BME280;12598;62.382;17.344;2023-06-26T01:56:11;101651.19;;;25.60;32.21
13478;BME280;12598;62.382;17.344;2023-06-26T01:57:15;101655.75;;;25.59;32.06
13478;BME280;12598;62.382;17.344;2023-06-26T01:58:22;101655.94;;;25.58;31.96
13478;BME280;12598;62.382;17.344;2023-06-26T01:59:28;101659.84;;;25.55;31.90
13478;BME280;12598;62.382;17.344;2023-06-26T02:00:33;101655.28;;;25.56;32.39
13478;BME280;12598;62.382;17.344;2023-06-26T02:01:36;101662.72;;;25.54;32.20
13478;BME280;12598;62.382;17.344;2023-06-26T02:02:40;101645.47;;;25.47;32.13
13478;BME280;12598;62.382;17.344;2023-06-26T02:03:43;101644.44;;;25.48;32.15
13478;BME280;12598;62.382;17.344;2023-06-26T02:04:45;101647.50;;;25.45;32.10
13478;BME280;12598;62.382;17.344;2023-06-26T02:05:50;101652.22;;;25.51;32.16
13478;BME280;12598;62.382;17.344;2023-06-26T02:06:52;101652.22;;;25.51;32.39
13478;BME280;12598;62.382;17.344;2023-06-26T02:07:56;101658.66;;;25.50;32.20
13478;BME280;12598;62.382;17.344;2023-06-26T02:08:58;101654.09;;;25.50;31.90
13478;BME280;12598;62.382;17.344;2023-06-26T02:10:00;101651.53;;;25.49;32.29
13478;BME280;12598;62.382;17.344;2023-06-26T02:11:02;101650.53;;;25.50;32.27
13478;BME280;12598;62.382;17.344;2023-06-26T02:12:04;101648.16;;;25.47;32.52
13478;BME280;12598;62.382;17.344;2023-06-26T02:13:07;101649.84;;;25.48;32.22
13478;BME280;12598;62.382;17.344;2023-06-26T02:14:09;101646.47;;;25.46;32.55
13478;BME280;12598;62.382;17.344;2023-06-26T02:15:12;101649.84;;;25.48;31.81
13478;BME280;12598;62.382;17.344;2023-06-26T02:16:14;101646.47;;;25.46;31.86
13478;BME280;12598;62.382;17.344;2023-06-26T02:17:17;101651.75;;;25.47;32.46
13478;BME280;12598;62.382;17.344;2023-06-26T02:18:19;101640.25;;;25.45;31.89
13478;BME280;12598;62.382;17.344;2023-06-26T02:19:23;101640.59;;;25.42;32.21
13478;BME280;12598;62.382;17.344;2023-06-26T02:20:26;101649.19;;;25.46;32.06
13478;BME280;12598;62.382;17.344;2023-06-26T02:21:28;101651.91;;;25.46;32.11
13478;BME280;12598;62.382;17.344;2023-06-26T02:22:30;101650.22;;;25.45;32.52
13478;BME280;12598;62.382;17.344;2023-06-26T02:23:32;101649.19;;;25.46;32.60
13478;BME280;12598;62.382;17.344;2023-06-26T02:24:34;101646.47;;;25.46;31.99
13478;BME280;12598;62.382;17.344;2023-06-26T02:25:37;101648.53;;;25.44;32.38
13478;BME280;12598;62.382;17.344;2023-06-26T02:26:39;101657.50;;;25.44;32.11
13478;BME280;12598;62.382;17.344;2023-06-26T02:27:40;101650.22;;;25.45;32.16
13478;BME280;12598;62.382;17.344;2023-06-26T02:28:44;101656.66;;;25.44;32.26
13478;BME280;12598;62.382;17.344;2023-06-26T02:29:46;101658.34;;;25.45;32.19
13478;BME280;12598;62.382;17.344;2023-06-26T02:30:48;101664.78;;;25.44;32.27
13478;BME280;12598;62.382;17.344;2023-06-26T02:31:50;101662.06;;;25.44;32.51
13478;BME280;12598;62.382;17.344;2023-06-26T02:32:52;101644.81;;;25.37;32.62
13478;BME280;12598;62.382;17.344;2023-06-26T02:33:54;101658.53;;;25.43;32.61
13478;BME280;12598;62.382;17.344;2023-06-26T02:34:55;101667.47;;;25.44;32.32
13478;BME280;12598;62.382;17.344;2023-06-26T02:35:57;101666.66;;;25.43;32.43
13478;BME280;12598;62.382;17.344;2023-06-26T02:36:59;101652.25;;;25.43;32.54
13478;BME280;12598;62.382;17.344;2023-06-26T02:38:02;101664.78;;;25.44;32.53
13478;BME280;12598;62.382;17.344;2023-06-26T02:39:04;101658.34;;;25.45;32.77
13478;BME280;12598;62.382;17.344;2023-06-26T02:40:08;101657.50;;;25.44;32.63
13478;BME280;12598;62.382;17.344;2023-06-26T02:41:12;101660.03;;;25.46;32.08
13478;BME280;12598;62.382;17.344;2023-06-26T02:42:14;101653.78;;;25.45;32.44
13478;BME280;12598;62.382;17.344;2023-06-26T02:43:16;101652.09;;;25.44;32.48
13478;BME280;12598;62.382;17.344;2023-06-26T02:44:19;101655.63;;;25.45;32.29
13478;BME280;12598;62.382;17.344;2023-06-26T02:45:21;101652.09;;;25.44;32.46
13478;BME280;12598;62.382;17.344;2023-06-26T02:46:23;101647.50;;;25.45;32.30
13478;BME280;12598;62.382;17.344;2023-06-26T02:47:25;101642.09;;;25.45;32.75
13478;BME280;12598;62.382;17.344;2023-06-26T02:48:27;101632.81;;;25.39;32.57
13478;BME280;12598;62.382;17.344;2023-06-26T02:49:29;101649.19;;;25.46;32.53
13478;BME280;12598;62.382;17.344;2023-06-26T02:50:31;101646.47;;;25.46;32.57
13478;BME280;12598;62.382;17.344;2023-06-26T02:51:42;101645.09;;;25.50;32.24
13478;BME280;12598;62.382;17.344;2023-06-26T02:52:50;101646.78;;;25.51;32.32
13478;BME280;12598;62.382;17.344;2023-06-26T02:53:56;101646.78;;;25.51;32.82
13478;BME280;12598;62.382;17.344;2023-06-26T02:54:58;101636.66;;;25.45;32.59
13478;BME280;12598;62.382;17.344;2023-06-26T02:56:00;101642.59;;;25.48;32.40
13478;BME280;12598;62.382;17.344;2023-06-26T02:57:02;101643.41;;;25.49;32.65
13478;BME280;12598;62.382;17.344;2023-06-26T02:58:06;101647.81;;;25.50;32.28
13478;BME280;12598;62.382;17.344;2023-06-26T02:59:09;101634.81;;;25.45;32.78
13478;BME280;12598;62.382;17.344;2023-06-26T03:00:11;101641.72;;;25.48;32.34
13478;BME280;12598;62.382;17.344;2023-06-26T03:01:20;101640.56;;;25.50;32.33
13478;BME280;12598;62.382;17.344;2023-06-26T03:02:23;101644.09;;;25.51;32.55
13478;BME280;12598;62.382;17.344;2023-06-26T03:03:26;101641.72;;;25.48;32.56
13478;BME280;12598;62.382;17.344;2023-06-26T03:04:28;101644.28;;;25.49;32.91
13478;BME280;12598;62.382;17.344;2023-06-26T03:05:30;101641.56;;;25.49;32.55
13478;BME280;12598;62.382;17.344;2023-06-26T03:06:33;101644.28;;;25.49;32.55
13478;BME280;12598;62.382;17.344;2023-06-26T03:07:35;101640.72;;;25.49;32.45
13478;BME280;12598;62.382;17.344;2023-06-26T03:08:38;101634.47;;;25.48;32.35
13478;BME280;12598;62.382;17.344;2023-06-26T03:09:42;101638.00;;;25.49;32.38
13478;BME280;12598;62.382;17.344;2023-06-26T03:10:46;101644.28;;;25.49;32.19
13478;BME280;12598;62.382;17.344;2023-06-26T03:11:49;101636.16;;;25.49;32.36
13478;BME280;12598;62.382;17.344;2023-06-26T03:12:51;101627.16;;;25.49;32.82
13478;BME280;12598;62.382;17.344;2023-06-26T03:13:53;101635.28;;;25.49;32.54
13478;BME280;12598;62.382;17.344;2023-06-26T03:14:55;101628.19;;;25.48;32.80
13478;BME280;12598;62.382;17.344;2023-06-26T03:15:57;101636.16;;;25.49;32.46
13478;BME280;12598;62.382;17.344;2023-06-26T03:17:00;101632.59;;;25.49;32.76
13478;BME280;12598;62.382;17.344;2023-06-26T03:18:06;101622.97;;;25.46;32.47
13478;BME280;12598;62.382;17.344;2023-06-26T03:19:08;101601.84;;;25.34;32.49
13478;BME280;12598;62.382;17.344;2023-06-26T03:20:30;101626.00;;;25.51;32.70
13478;BME280;12598;62.382;17.344;2023-06-26T03:21:32;101631.25;;;25.53;32.80
13478;BME280;12598;62.382;17.344;2023-06-26T03:22:35;101621.44;;;25.52;32.53
13478;BME280;12598;62.382;17.344;2023-06-26T03:23:37;101619.41;;;25.46;32.88
13478;BME280;12598;62.382;17.344;2023-06-26T03:24:39;101623.44;;;25.50;32.39
13478;BME280;12598;62.382;17.344;2023-06-26T03:25:41;101626.16;;;25.50;32.55
13478;BME280;12598;62.382;17.344;2023-06-26T03:26:58;101625.63;;;25.54;32.83
13478;BME280;12598;62.382;17.344;2023-06-26T03:28:00;101623.44;;;25.50;32.39
13478;BME280;12598;62.382;17.344;2023-06-26T03:29:02;101631.41;;;25.51;32.22
13478;BME280;12598;62.382;17.344;2023-06-26T03:30:06;101629.56;;;25.52;32.89
13478;BME280;12598;62.382;17.344;2023-06-26T03:31:10;101632.28;;;25.52;32.40
13478;BME280;12598;62.382;17.344;2023-06-26T03:32:12;101624.31;;;25.50;32.43
13478;BME280;12598;62.382;17.344;2023-06-26T03:33:14;101629.72;;;25.50;32.42
13478;BME280;12598;62.382;17.344;2023-06-26T03:34:17;101614.19;;;25.44;32.78
13478;BME280;12598;62.382;17.344;2023-06-26T03:35:19;101633.44;;;25.49;32.43
13478;BME280;12598;62.382;17.344;2023-06-26T03:36:21;101627.16;;;25.49;32.43
13478;BME280;12598;62.382;17.344;2023-06-26T03:37:23;101631.56;;;25.50;32.70
13478;BME280;12598;62.382;17.344;2023-06-26T03:38:25;101627.16;;;25.49;32.63
13478;BME280;12598;62.382;17.344;2023-06-26T03:39:30;101635.13;;;25.50;32.57
13478;BME280;12598;62.382;17.344;2023-06-26T03:40:32;101623.44;;;25.50;32.52
13478;BME280;12598;62.382;17.344;2023-06-26T03:41:35;101628.84;;;25.50;32.37
13478;BME280;12598;62.382;17.344;2023-06-26T03:42:38;101634.28;;;25.50;32.43
13478;BME280;12598;62.382;17.344;2023-06-26T03:43:40;101630.53;;;25.51;32.50
13478;BME280;12598;62.382;17.344;2023-06-26T03:44:53;101622.78;;;25.48;32.20
13478;BME280;12598;62.382;17.344;2023-06-26T03:45:55;101626.00;;;25.51;32.38
13478;BME280;12598;62.382;17.344;2023-06-26T03:46:57;101620.94;;;25.48;32.18
13478;BME280;12598;62.382;17.344;2023-06-26T03:47:59;101622.63;;;25.49;32.13
13478;BME280;12598;62.382;17.344;2023-06-26T03:49:01;101613.63;;;25.49;32.23
13478;BME280;12598;62.382;17.344;2023-06-26T03:50:03;101614.34;;;25.43;32.45
13478;BME280;12598;62.382;17.344;2023-06-26T03:51:05;101614.66;;;25.48;32.32
13478;BME280;12598;62.382;17.344;2023-06-26T03:52:08;101620.06;;;25.48;32.40
13478;BME280;12598;62.382;17.344;2023-06-26T03:53:10;101616.34;;;25.49;32.51
13478;BME280;12598;62.382;17.344;2023-06-26T03:54:14;101610.91;;;25.49;32.15
13478;BME280;12598;62.382;17.344;2023-06-26T03:55:17;101603.50;;;25.43;32.35
13478;BME280;12598;62.382;17.344;2023-06-26T03:56:20;101606.88;;;25.45;32.47
13478;BME280;12598;62.382;17.344;2023-06-26T03:57:23;101619.03;;;25.49;32.11
13478;BME280;12598;62.382;17.344;2023-06-26T03:58:26;101617.34;;;25.48;32.15
13478;BME280;12598;62.382;17.344;2023-06-26T03:59:28;101621.75;;;25.49;32.75
13478;BME280;12598;62.382;17.344;2023-06-26T04:00:30;101619.03;;;25.49;32.17
13478;BME280;12598;62.382;17.344;2023-06-26T04:01:32;101609.78;;;25.43;32.65
13478;BME280;12598;62.382;17.344;2023-06-26T04:02:35;101615.00;;;25.45;32.53
13478;BME280;12598;62.382;17.344;2023-06-26T04:03:39;101615.31;;;25.50;32.82
13478;BME280;12598;62.382;17.344;2023-06-26T04:04:41;101620.56;;;25.51;32.88
13478;BME280;12598;62.382;17.344;2023-06-26T04:05:43;101585.09;;;25.30;32.77
13478;BME280;12598;62.382;17.344;2023-06-26T04:06:45;101616.69;;;25.46;33.15
13478;BME280;12598;62.382;17.344;2023-06-26T04:07:51;101612.59;;;25.50;32.90
13478;BME280;12598;62.382;17.344;2023-06-26T04:08:54;101615.66;;;25.55;32.68
13478;BME280;12598;62.382;17.344;2023-06-26T04:09:55;101603.47;;;25.51;32.82
13478;BME280;12598;62.382;17.344;2023-06-26T04:10:57;101597.38;;;25.49;33.04
13478;BME280;12598;62.382;17.344;2023-06-26T04:12:00;101605.50;;;25.57;32.86
13478;BME280;12598;62.382;17.344;2023-06-26T04:13:02;101603.13;;;25.54;32.91
13478;BME280;12598;62.382;17.344;2023-06-26T04:14:04;101604.63;;;25.56;32.81
13478;BME280;12598;62.382;17.344;2023-06-26T04:15:07;101600.75;;;25.59;33.26
13478;BME280;12598;62.382;17.344;2023-06-26T04:16:09;101604.13;;;25.61;32.97
13478;BME280;12598;62.382;17.344;2023-06-26T04:17:13;101604.13;;;25.61;32.65
13478;BME280;12598;62.382;17.344;2023-06-26T04:18:15;101602.06;;;25.63;33.10
13478;BME280;12598;62.382;17.344;2023-06-26T04:19:17;101604.78;;;25.63;32.75
13478;BME280;12598;62.382;17.344;2023-06-26T04:20:19;101598.34;;;25.63;33.07
13478;BME280;12598;62.382;17.344;2023-06-26T04:21:23;101599.19;;;25.64;32.99
13478;BME280;12598;62.382;17.344;2023-06-26T04:22:26;101596.97;;;25.67;32.98
13478;BME280;12598;62.382;17.344;2023-06-26T04:23:28;101600.50;;;25.68;32.96
13478;BME280;12598;62.382;17.344;2023-06-26T04:24:30;101602.19;;;25.69;32.60
13478;BME280;12598;62.382;17.344;2023-06-26T04:25:32;101594.41;;;25.66;32.75
13478;BME280;12598;62.382;17.344;2023-06-26T04:26:34;101592.03;;;25.71;32.55
13478;BME280;12598;62.382;17.344;2023-06-26T04:27:36;101591.88;;;25.72;32.91
13478;BME280;12598;62.382;17.344;2023-06-26T04:28:42;101594.94;;;25.69;32.75
13478;BME280;12598;62.382;17.344;2023-06-26T04:29:44;101590.69;;;25.75;32.75
13478;BME280;12598;62.382;17.344;2023-06-26T04:30:46;101590.69;;;25.75;32.79
13478;BME280;12598;62.382;17.344;2023-06-26T04:31:48;101592.38;;;25.76;33.21
13478;BME280;12598;62.382;17.344;2023-06-26T04:32:50;101590.84;;;25.73;33.12
13478;BME280;12598;62.382;17.344;2023-06-26T04:33:52;101592.16;;;25.77;32.94
13478;BME280;12598;62.382;17.344;2023-06-26T04:34:56;101593.84;;;25.78;32.66
13478;BME280;12598;62.382;17.344;2023-06-26T04:35:58;101593.84;;;25.78;32.87
13478;BME280;12598;62.382;17.344;2023-06-26T04:37:05;101590.66;;;25.83;33.00
13478;BME280;12598;62.382;17.344;2023-06-26T04:38:07;101583.38;;;25.75;32.87
13478;BME280;12598;62.382;17.344;2023-06-26T04:39:11;101587.75;;;25.84;32.80
13478;BME280;12598;62.382;17.344;2023-06-26T04:40:13;101585.91;;;25.85;32.70
13478;BME280;12598;62.382;17.344;2023-06-26T04:41:15;101588.63;;;25.85;32.68
13478;BME280;12598;62.382;17.344;2023-06-26T04:42:17;101581.31;;;25.85;32.83
13478;BME280;12598;62.382;17.344;2023-06-26T04:43:20;101583.00;;;25.86;32.75
13478;BME280;12598;62.382;17.344;2023-06-26T04:44:23;101580.28;;;25.86;32.99
13478;BME280;12598;62.382;17.344;2023-06-26T04:45:24;101583.84;;;25.87;32.76
13478;BME280;12598;62.382;17.344;2023-06-26T04:46:26;101577.41;;;25.88;32.83
13478;BME280;12598;62.382;17.344;2023-06-26T04:47:29;101581.97;;;25.87;32.81
13478;BME280;12598;62.382;17.344;2023-06-26T04:48:32;101576.56;;;25.87;32.85
13478;BME280;12598;62.382;17.344;2023-06-26T04:49:34;101579.09;;;25.89;32.88
13478;BME280;12598;62.382;17.344;2023-06-26T04:50:39;101578.91;;;25.90;32.64
13478;BME280;12598;62.382;17.344;2023-06-26T04:51:42;101564.88;;;25.87;32.66
13478;BME280;12598;62.382;17.344;2023-06-26T04:52:44;101573.47;;;25.90;33.16
13478;BME280;12598;62.382;17.344;2023-06-26T04:53:46;101573.47;;;25.90;32.52
13478;BME280;12598;62.382;17.344;2023-06-26T04:54:47;101576.03;;;25.92;32.99
13478;BME280;12598;62.382;17.344;2023-06-26T04:55:52;101573.47;;;25.90;32.97
13478;BME280;12598;62.382;17.344;2023-06-26T04:56:54;101570.63;;;25.92;32.73
13478;BME280;12598;62.382;17.344;2023-06-26T04:57:57;101562.84;;;25.89;32.81
13478;BME280;12598;62.382;17.344;2023-06-26T04:58:59;101576.84;;;25.92;32.86
13478;BME280;12598;62.382;17.344;2023-06-26T05:00:01;101571.78;;;25.89;32.85
13478;BME280;12598;62.382;17.344;2023-06-26T05:01:03;101569.75;;;25.91;32.87
13478;BME280;12598;62.382;17.344;2023-06-26T05:02:08;101562.19;;;25.87;33.00
13478;BME280;12598;62.382;17.344;2023-06-26T05:03:15;101564.34;;;25.91;33.04
13478;BME280;12598;62.382;17.344;2023-06-26T05:04:18;101567.72;;;25.93;33.10
13478;BME280;12598;62.382;17.344;2023-06-26T05:05:21;101564.34;;;25.91;32.77
13478;BME280;12598;62.382;17.344;2023-06-26T05:06:22;101563.66;;;25.89;32.77
13478;BME280;12598;62.382;17.344;2023-06-26T05:07:25;101565.72;;;25.87;33.03
13478;BME280;12598;62.382;17.344;2023-06-26T05:08:27;101563.31;;;25.92;32.89
13478;BME280;12598;62.382;17.344;2023-06-26T05:09:29;101568.72;;;25.92;33.11
13478;BME280;12598;62.382;17.344;2023-06-26T05:10:31;101563.13;;;25.94;32.99
13478;BME280;12598;62.382;17.344;2023-06-26T05:11:33;101558.91;;;25.91;32.79
13478;BME280;12598;62.382;17.344;2023-06-26T05:12:35;101562.66;;;25.90;32.75
13478;BME280;12598;62.382;17.344;2023-06-26T05:13:37;101560.25;;;25.95;32.75
13478;BME280;12598;62.382;17.344;2023-06-26T05:14:39;101555.88;;;25.94;32.81
13478;BME280;12598;62.382;17.344;2023-06-26T05:15:41;101564.09;;;26.01;32.79
13478;BME280;12598;62.382;17.344;2023-06-26T05:16:43;101553.47;;;25.99;32.81
13478;BME280;12598;62.382;17.344;2023-06-26T05:17:45;101559.84;;;26.06;32.88
13478;BME280;12598;62.382;17.344;2023-06-26T05:18:47;101558.16;;;26.05;32.78
13478;BME280;12598;62.382;17.344;2023-06-26T05:19:49;101565.56;;;26.11;32.69
13478;BME280;12598;62.382;17.344;2023-06-26T05:20:51;101557.44;;;26.11;32.64
13478;BME280;12598;62.382;17.344;2023-06-26T05:21:54;101554.19;;;26.16;32.74
13478;BME280;12598;62.382;17.344;2023-06-26T05:22:58;101555.50;;;26.20;32.62
13478;BME280;12598;62.382;17.344;2023-06-26T05:24:02;101552.59;;;26.21;32.30
13478;BME280;12598;62.382;17.344;2023-06-26T05:25:05;101551.56;;;26.22;32.10
13478;BME280;12598;62.382;17.344;2023-06-26T05:26:08;101549.81;;;26.29;32.20
13478;BME280;12598;62.382;17.344;2023-06-26T05:27:10;101561.97;;;26.33;32.17
13478;BME280;12598;62.382;17.344;2023-06-26T05:28:14;101545.06;;;26.31;32.46
13478;BME280;12598;62.382;17.344;2023-06-26T05:29:17;101551.47;;;26.38;32.38